Flowerfield, Illinois
Current Conditions -  °F | °C
As of 7:51 PM on Saturday 25 Oct 2014 (Local Time) from KORD Reporting Station
Clear Clear  
Wind Chill: 16°   Ceiling: Unl
Heat Index: 16°   Visibility: 10mi
Dew Point: -2°   Wind: 10mph
Humidity: 31%   Direction: 300°WNW
Pressure: 29.94"   Gusts: NA
Location:  41.8742°N, 88.0172°W
Report Text: KORD 260051Z 30009KT 10SM CLR 16/M02 A2994 RMK AO2 SLP139 T01561017
Loading
Personal Weather Stations






























Interactive Weather Map
Tropical Storm Tracking
New forecast layout! Learn more

10-Day Weather Forecast

Advertisements
Track Severe Weather on mobile